Time;durP1;ratioP1;P1;durP2;ratioP2;P2;SDS_P1;SDS_P2;PMS_P1;PMS_P2;Temp;Humidity;BMP_temperature;BMP_pressure;BME280_temperature;BME280_humidity;BME280_pressure;Samples;Min_cycle;Max_cycle;Signal;HPM_P1;HPM_P2
2022/09/16 05:00:26;;;;;;;4.03;3.73;;;16.10;97.20;;;;;;1728367;28;20191;-73
2022/09/16 05:01:19;;;;;;;3.88;3.50;;;16.00;97.20;;;;;;1725952;28;20201;-73
2022/09/16 05:02:11;;;;;;;3.95;3.60;;;16.00;97.20;;;;;;1728229;28;20231;-73
2022/09/16 05:03:02;;;;;;;6.88;4.43;;;16.00;97.20;;;;;;1728292;28;20240;-73
2022/09/16 05:03:56;;;;;;;5.90;3.70;;;16.00;97.20;;;;;;1728256;28;20204;-73
2022/09/16 05:04:47;;;;;;;4.80;3.85;;;16.00;97.20;;;;;;1728253;28;20197;-73
2022/09/16 05:05:38;;;;;;;4.25;3.80;;;16.00;97.20;;;;;;1728333;28;20196;-70
2022/09/16 05:06:31;;;;;;;4.22;3.92;;;16.00;97.20;;;;;;1728181;28;20595;-70
2022/09/16 05:07:22;;;;;;;3.95;3.63;;;16.00;97.20;;;;;;1730228;28;20212;-70
2022/09/16 05:08:13;;;;;;;6.95;4.00;;;16.10;97.20;;;;;;1735044;28;20207;-71
2022/09/16 05:09:05;;;;;;;5.30;4.00;;;16.10;97.20;;;;;;1734972;28;20202;-71
2022/09/16 05:09:56;;;;;;;3.90;3.60;;;16.10;97.20;;;;;;1734945;28;20231;-71
2022/09/16 05:10:48;;;;;;;4.53;4.13;;;16.10;97.20;;;;;;1729382;28;20204;-70
2022/09/16 05:11:40;;;;;;;4.45;4.05;;;16.10;97.20;;;;;;1727856;28;20201;-71
2022/09/16 05:12:32;;;;;;;4.47;4.18;;;16.10;97.20;;;;;;1728287;28;20662;-71
2022/09/16 05:13:22;;;;;;;5.55;4.78;;;16.10;97.20;;;;;;1727840;28;20196;-70
2022/09/16 05:14:16;;;;;;;5.63;5.13;;;16.10;97.20;;;;;;1728313;28;20203;-71
2022/09/16 05:15:08;;;;;;;5.18;4.45;;;16.10;97.20;;;;;;1728114;28;20207;-71
2022/09/16 05:16:06;;;;;;;5.35;4.72;;;16.10;97.20;;;;;;1729811;28;20196;-71
2022/09/16 05:16:57;;;;;;;5.57;4.88;;;16.10;97.20;;;;;;1735065;28;20231;-71
2022/09/16 05:17:49;;;;;;;5.63;4.30;;;16.10;97.20;;;;;;1734657;28;20555;-71
2022/09/16 05:18:41;;;;;;;5.90;4.55;;;16.10;97.20;;;;;;1735026;28;20559;-71
2022/09/16 05:19:33;;;;;;;4.97;4.47;;;16.10;97.20;;;;;;1721380;28;20201;-71
2022/09/16 05:20:23;;;;;;;5.45;4.72;;;16.10;97.20;;;;;;1721425;28;20231;-71
2022/09/16 05:21:17;;;;;;;4.80;4.50;;;16.10;97.20;;;;;;1725410;28;20196;-71
2022/09/16 05:22:08;;;;;;;6.20;5.03;;;16.00;97.20;;;;;;1727646;28;20197;-70
2022/09/16 05:22:59;;;;;;;7.77;4.90;;;16.00;97.20;;;;;;1728027;28;20204;-71
2022/09/16 05:23:52;;;;;;;5.07;4.68;;;16.00;97.20;;;;;;1728104;28;20196;-71
2022/09/16 05:24:44;;;;;;;4.97;4.57;;;16.00;97.20;;;;;;1728053;28;20196;-70
2022/09/16 05:25:35;;;;;;;7.22;4.85;;;16.00;97.20;;;;;;1728219;28;20200;-71
2022/09/16 05:26:29;;;;;;;5.47;4.87;;;16.00;97.20;;;;;;1727778;28;20276;-70
2022/09/16 05:27:21;;;;;;;4.88;4.47;;;16.00;97.20;;;;;;1727348;28;20197;-71
2022/09/16 05:28:12;;;;;;;5.63;4.53;;;16.00;97.20;;;;;;1727966;28;20279;-71
2022/09/16 05:29:05;;;;;;;6.70;4.57;;;16.00;97.20;;;;;;1729747;28;20227;-72
2022/09/16 05:29:57;;;;;;;4.88;4.47;;;16.00;97.20;;;;;;1734816;28;20662;-71
2022/09/16 05:30:47;;;;;;;5.78;5.15;;;16.00;97.20;;;;;;1729132;28;20677;-71
2022/09/16 05:31:42;;;;;;;6.10;4.70;;;16.00;97.20;;;;;;1728177;28;20219;-72
2022/09/16 05:32:33;;;;;;;5.55;4.95;;;16.00;97.20;;;;;;1727964;28;20440;-71
2022/09/16 05:33:25;;;;;;;7.90;5.60;;;16.00;97.20;;;;;;1732079;28;20192;-72
2022/09/16 05:34:17;;;;;;;5.18;4.68;;;16.00;97.20;;;;;;1727942;28;20672;-72
2022/09/16 05:35:10;;;;;;;7.35;5.40;;;16.00;97.20;;;;;;1727902;28;20204;-71
2022/09/16 05:36:03;;;;;;;4.95;4.45;;;16.00;97.20;;;;;;1732276;28;20196;-71
2022/09/16 05:36:56;;;;;;;5.85;4.68;;;16.00;97.20;;;;;;1734758;28;20200;-71
2022/09/16 05:37:48;;;;;;;5.78;5.28;;;16.00;97.20;;;;;;1734588;28;20204;-70
2022/09/16 05:38:40;;;;;;;7.20;5.60;;;16.00;97.20;;;;;;1729535;28;20648;-72
2022/09/16 05:39:31;;;;;;;6.20;5.10;;;16.00;97.20;;;;;;1727346;28;20212;-72
2022/09/16 05:40:22;;;;;;;8.27;5.27;;;16.00;97.20;;;;;;1730459;28;20192;-71
2022/09/16 05:41:13;;;;;;;5.63;5.22;;;16.00;97.20;;;;;;1725374;28;20699;-72
2022/09/16 05:42:05;;;;;;;5.00;4.30;;;15.90;97.20;;;;;;1727943;28;20235;-70
2022/09/16 05:42:56;;;;;;;5.32;4.80;;;16.00;97.20;;;;;;1728069;28;20842;-71
2022/09/16 05:43:48;;;;;;;6.37;4.70;;;15.90;97.20;;;;;;1728110;28;20863;-72
2022/09/16 05:44:39;;;;;;;6.18;5.15;;;16.00;97.20;;;;;;1727880;28;20201;-72
2022/09/16 05:45:31;;;;;;;6.17;4.87;;;16.00;97.20;;;;;;1727907;28;20192;-72
2022/09/16 05:46:23;;;;;;;5.07;4.63;;;16.00;97.20;;;;;;1727943;28;20204;-71
2022/09/16 05:47:16;;;;;;;5.00;4.55;;;16.00;97.20;;;;;;1727617;28;20556;-72
2022/09/16 05:48:06;;;;;;;4.90;4.47;;;16.00;97.20;;;;;;1727663;28;20204;-72
2022/09/16 05:48:58;;;;;;;5.53;4.70;;;16.00;97.20;;;;;;1727925;28;20203;-72
2022/09/16 05:49:49;;;;;;;6.05;4.70;;;16.00;97.20;;;;;;1727733;28;20331;-71
2022/09/16 05:50:40;;;;;;;5.93;4.47;;;16.00;97.20;;;;;;1727091;28;20283;-71
2022/09/16 05:51:31;;;;;;;7.05;4.57;;;15.90;97.20;;;;;;1727741;28;20573;-71
2022/09/16 05:52:24;;;;;;;5.90;4.70;;;16.00;97.20;;;;;;1729332;28;20407;-71
2022/09/16 05:53:15;;;;;;;6.47;5.13;;;15.90;97.20;;;;;;1734627;28;20204;-71
2022/09/16 05:54:06;;;;;;;5.20;4.70;;;16.00;97.20;;;;;;1733184;28;20206;-72
2022/09/16 05:54:57;;;;;;;4.95;4.47;;;16.00;97.20;;;;;;1727910;28;20601;-70
2022/09/16 05:55:57;;;;;;;5.20;4.70;;;16.00;97.20;;;;;;1727552;28;20192;-71
2022/09/16 05:56:48;;;;;;;4.63;4.22;;;16.00;97.20;;;;;;1727923;28;20208;-71
2022/09/16 05:57:39;;;;;;;5.17;4.70;;;16.00;97.20;;;;;;1727737;28;20199;-71
2022/09/16 05:58:32;;;;;;;6.32;4.75;;;16.00;97.20;;;;;;1726973;28;20961;-71
2022/09/16 05:59:23;;;;;;;5.40;4.90;;;16.00;97.20;;;;;;1727648;28;20769;-72
2022/09/16 06:00:15;;;;;;;7.93;4.90;;;16.00;97.20;;;;;;1726871;28;20206;-71
2022/09/16 06:01:09;;;;;;;4.95;4.55;;;16.00;97.20;;;;;;1727721;28;20204;-71
2022/09/16 06:02:00;;;;;;;5.65;5.03;;;16.00;97.20;;;;;;1727412;28;20855;-71
2022/09/16 06:02:52;;;;;;;5.30;4.80;;;16.00;97.20;;;;;;1726921;28;20225;-70
2022/09/16 06:03:46;;;;;;;8.57;5.25;;;16.00;97.20;;;;;;1727206;28;20250;-70
2022/09/16 06:04:36;;;;;;;4.70;4.30;;;16.00;97.20;;;;;;1727464;28;20209;-71
2022/09/16 06:05:28;;;;;;;5.23;4.73;;;16.00;97.20;;;;;;1727937;28;20200;-71
2022/09/16 06:06:22;;;;;;;4.90;4.40;;;16.00;97.20;;;;;;1728155;28;20215;-71
2022/09/16 06:07:14;;;;;;;5.20;4.43;;;16.00;97.20;;;;;;1727692;28;20212;-71
2022/09/16 06:08:04;;;;;;;5.85;4.53;;;16.00;97.20;;;;;;1727756;28;20204;-71
2022/09/16 06:08:58;;;;;;;6.30;4.70;;;16.00;97.20;;;;;;1727449;28;20203;-72
2022/09/16 06:09:49;;;;;;;5.20;4.80;;;16.00;97.20;;;;;;1727540;28;20248;-71
2022/09/16 06:10:41;;;;;;;5.27;4.77;;;16.00;97.20;;;;;;1728052;28;20670;-72
2022/09/16 06:11:35;;;;;;;6.10;4.40;;;16.00;97.20;;;;;;1728097;28;20204;-72
2022/09/16 06:12:27;;;;;;;5.93;4.80;;;16.00;97.20;;;;;;1728207;28;20203;-72
2022/09/16 06:13:18;;;;;;;4.97;4.40;;;16.00;97.20;;;;;;1728001;28;20209;-71
2022/09/16 06:14:11;;;;;;;5.93;4.33;;;16.00;97.20;;;;;;1727773;28;20201;-71
2022/09/16 06:15:01;;;;;;;5.07;4.53;;;16.00;97.20;;;;;;1728059;28;20235;-70
2022/09/16 06:15:54;;;;;;;6.83;4.63;;;16.00;97.20;;;;;;1727775;28;20222;-71
2022/09/16 06:16:45;;;;;;;4.88;4.10;;;16.00;97.20;;;;;;1728026;28;20681;-71
2022/09/16 06:17:37;;;;;;;5.10;4.28;;;16.00;97.20;;;;;;1727904;28;20652;-71
2022/09/16 06:18:30;;;;;;;6.40;4.80;;;16.00;97.20;;;;;;1728018;28;20200;-71
2022/09/16 06:19:21;;;;;;;6.05;3.90;;;16.00;97.20;;;;;;1728002;28;20200;-71
2022/09/16 06:20:13;;;;;;;8.05;5.28;;;16.00;97.20;;;;;;1727568;28;20215;-71
2022/09/16 06:21:07;;;;;;;5.78;4.40;;;16.00;97.20;;;;;;1728110;28;20200;-72
2022/09/16 06:21:58;;;;;;;4.68;4.28;;;16.00;97.20;;;;;;1728074;28;20213;-71
2022/09/16 06:22:50;;;;;;;4.50;4.10;;;16.00;97.20;;;;;;1727711;28;20224;-72
2022/09/16 06:23:41;;;;;;;4.53;4.07;;;16.00;97.20;;;;;;1728092;28;20207;-71
2022/09/16 06:24:32;;;;;;;4.60;4.20;;;16.00;97.20;;;;;;1728082;28;20200;-72
2022/09/16 06:25:23;;;;;;;6.28;4.40;;;16.00;97.20;;;;;;1727977;28;20439;-72
2022/09/16 06:26:17;;;;;;;6.00;4.30;;;16.00;97.20;;;;;;1728073;28;20206;-71
2022/09/16 06:27:07;;;;;;;6.30;4.50;;;16.00;97.20;;;;;;1728018;28;20213;-71
2022/09/16 06:27:59;;;;;;;5.90;4.40;;;16.00;97.20;;;;;;1727743;28;20212;-71
2022/09/16 06:28:51;;;;;;;4.38;3.97;;;16.00;97.20;;;;;;1727979;28;20200;-71
2022/09/16 06:29:43;;;;;;;9.70;4.45;;;16.00;97.20;;;;;;1727922;28;20279;-71
2022/09/16 06:30:34;;;;;;;4.90;4.32;;;16.00;97.20;;;;;;1727746;28;20204;-71
2022/09/16 06:31:27;;;;;;;6.23;4.10;;;16.00;97.20;;;;;;1727697;28;20227;-71
2022/09/16 06:32:18;;;;;;;5.95;3.95;;;16.00;97.20;;;;;;1728013;28;20450;-71
2022/09/16 06:33:11;;;;;;;7.43;4.30;;;16.00;97.20;;;;;;1728087;28;20203;-71
2022/09/16 06:34:04;;;;;;;5.85;4.30;;;16.00;97.20;;;;;;1727949;28;20208;-72
2022/09/16 06:34:56;;;;;;;6.97;4.63;;;16.00;97.20;;;;;;1727959;28;20679;-71
2022/09/16 06:35:47;;;;;;;5.95;3.60;;;16.00;97.20;;;;;;1727958;28;20239;-72
2022/09/16 06:36:39;;;;;;;4.97;3.70;;;16.00;97.20;;;;;;1727902;28;20204;-72
2022/09/16 06:37:30;;;;;;;5.35;3.70;;;16.00;97.20;;;;;;1727756;28;20200;-71
2022/09/16 06:38:21;;;;;;;6.13;3.63;;;16.00;97.20;;;;;;1728041;28;20200;-71
2022/09/16 06:39:13;;;;;;;4.40;3.55;;;16.00;97.20;;;;;;1727932;28;20236;-71
2022/09/16 06:40:06;;;;;;;6.10;4.00;;;16.00;97.20;;;;;;1728107;28;20240;-71
2022/09/16 06:40:58;;;;;;;6.68;4.13;;;16.00;97.20;;;;;;1721184;28;20224;-72
2022/09/16 06:41:50;;;;;;;6.53;4.30;;;16.00;97.20;;;;;;1721198;28;20247;-72
2022/09/16 06:42:41;;;;;;;4.38;3.70;;;16.00;97.20;;;;;;1721115;28;20232;-72
2022/09/16 06:43:34;;;;;;;4.47;3.80;;;16.00;97.20;;;;;;1721262;28;20212;-72
2022/09/16 06:44:24;;;;;;;4.22;3.50;;;15.90;97.20;;;;;;1721166;28;20451;-71
2022/09/16 06:45:16;;;;;;;6.53;4.30;;;16.00;97.20;;;;;;1722884;28;20663;-71
2022/09/16 06:46:12;;;;;;;5.82;3.90;;;16.00;97.20;;;;;;1727944;28;20205;-71
2022/09/16 06:47:04;;;;;;;4.50;3.58;;;16.00;97.20;;;;;;1727907;28;20705;-71
2022/09/16 06:47:58;;;;;;;8.18;3.95;;;15.90;97.20;;;;;;1727616;28;20204;-71
2022/09/16 06:48:51;;;;;;;4.20;3.80;;;15.90;97.20;;;;;;1727795;28;20197;-72
2022/09/16 06:49:45;;;;;;;7.00;3.60;;;15.90;97.20;;;;;;1727793;28;20216;-71
2022/09/16 06:50:36;;;;;;;6.18;3.72;;;15.90;97.20;;;;;;1727645;28;20223;-71
2022/09/16 06:51:29;;;;;;;5.45;3.95;;;15.90;97.20;;;;;;1727956;28;20205;-71
2022/09/16 06:52:21;;;;;;;7.80;4.40;;;15.90;97.20;;;;;;1727945;28;20200;-71
2022/09/16 06:53:11;;;;;;;6.10;4.10;;;15.90;97.20;;;;;;1727847;28;20197;-71
2022/09/16 06:54:05;;;;;;;5.70;4.43;;;15.90;97.20;;;;;;1727926;28;20235;-72
2022/09/16 06:54:57;;;;;;;5.63;4.22;;;15.90;97.20;;;;;;1727813;28;20228;-71
2022/09/16 06:55:49;;;;;;;5.78;4.70;;;15.90;97.20;;;;;;1727802;28;20258;-72
2022/09/16 06:56:40;;;;;;;6.40;5.30;;;15.90;97.20;;;;;;1727835;28;20219;-71
2022/09/16 06:57:31;;;;;;;5.38;4.38;;;15.90;97.20;;;;;;1727664;28;20803;-71
2022/09/16 06:58:22;;;;;;;4.63;4.18;;;15.90;97.20;;;;;;1727785;28;20205;-71
2022/09/16 06:59:14;;;;;;;8.00;4.70;;;15.90;97.20;;;;;;1727899;28;20205;-71
2022/09/16 07:00:06;;;;;;;6.18;4.60;;;15.90;97.20;;;;;;1727816;28;20225;-71
2022/09/16 07:00:58;;;;;;;5.93;4.40;;;15.90;97.20;;;;;;1727311;28;20647;-70
2022/09/16 07:01:49;;;;;;;6.05;4.63;;;15.90;97.20;;;;;;1727836;28;20204;-71
2022/09/16 07:02:40;;;;;;;4.70;4.30;;;15.90;97.20;;;;;;1727782;28;20203;-71
2022/09/16 07:03:31;;;;;;;5.75;5.15;;;15.90;97.20;;;;;;1727765;28;20224;-70
2022/09/16 07:04:23;;;;;;;5.63;4.70;;;15.90;97.20;;;;;;1727816;28;20204;-71
2022/09/16 07:05:15;;;;;;;4.93;3.95;;;15.90;97.20;;;;;;1727314;28;20443;-71
2022/09/16 07:06:08;;;;;;;5.65;4.32;;;15.90;97.20;;;;;;1727461;28;20212;-71
2022/09/16 07:06:59;;;;;;;4.65;4.20;;;15.90;97.20;;;;;;1727709;28;20583;-71
2022/09/16 07:07:51;;;;;;;6.80;4.50;;;15.90;97.20;;;;;;1727461;28;20193;-70
2022/09/16 07:08:43;;;;;;;6.65;4.63;;;15.90;97.20;;;;;;1727663;28;20216;-71
2022/09/16 07:09:35;;;;;;;4.55;4.10;;;15.90;97.20;;;;;;1727724;28;20204;-71
2022/09/16 07:10:25;;;;;;;7.05;3.80;;;15.90;97.20;;;;;;1727478;28;20253;-71
2022/09/16 07:11:19;;;;;;;4.97;4.00;;;15.90;97.20;;;;;;1727797;28;20718;-71
2022/09/16 07:12:10;;;;;;;5.18;4.18;;;15.90;97.20;;;;;;1727766;28;20211;-71
2022/09/16 07:13:01;;;;;;;13.30;4.80;;;15.90;97.20;;;;;;1727859;28;20203;-71
2022/09/16 07:13:53;;;;;;;5.57;3.88;;;15.90;97.20;;;;;;1727740;28;20294;-71
2022/09/16 07:14:45;;;;;;;5.30;3.85;;;15.90;97.20;;;;;;1727730;28;20196;-71
2022/09/16 07:15:35;;;;;;;6.80;4.53;;;15.90;97.20;;;;;;1727753;28;20255;-71
2022/09/16 07:16:27;;;;;;;7.83;4.23;;;15.90;97.20;;;;;;1727743;28;20192;-71
2022/09/16 07:17:18;;;;;;;4.25;3.75;;;15.90;97.20;;;;;;1727429;28;20224;-70
2022/09/16 07:18:09;;;;;;;5.03;3.70;;;15.90;97.20;;;;;;1727721;28;20196;-71
2022/09/16 07:19:00;;;;;;;4.57;3.53;;;15.90;97.20;;;;;;1727657;28;20204;-71
2022/09/16 07:19:52;;;;;;;7.67;4.10;;;15.90;97.20;;;;;;1727655;28;20221;-71
2022/09/16 07:20:44;;;;;;;4.05;3.63;;;15.90;97.20;;;;;;1727488;28;20204;-71
2022/09/16 07:21:36;;;;;;;4.82;4.10;;;15.90;97.20;;;;;;1727712;28;20675;-71
2022/09/16 07:22:30;;;;;;;5.38;3.53;;;15.90;97.20;;;;;;1727642;28;20200;-71
2022/09/16 07:23:21;;;;;;;4.70;3.70;;;15.90;97.20;;;;;;1727711;28;20278;-71
2022/09/16 07:24:13;;;;;;;3.90;3.50;;;15.90;97.20;;;;;;1727644;28;20232;-71
2022/09/16 07:25:06;;;;;;;5.90;3.92;;;15.90;97.20;;;;;;1727708;28;20204;-71
2022/09/16 07:26:01;;;;;;;4.57;3.63;;;15.90;97.20;;;;;;1727639;28;20583;-71
2022/09/16 07:26:53;;;;;;;4.65;3.90;;;15.90;97.20;;;;;;1727659;28;20200;-70
2022/09/16 07:27:43;;;;;;;8.98;5.10;;;15.90;97.20;;;;;;1727330;28;20219;-70
2022/09/16 07:28:36;;;;;;;5.20;3.50;;;15.90;97.20;;;;;;1727536;28;20205;-71
2022/09/16 07:29:27;;;;;;;3.58;3.20;;;15.90;97.20;;;;;;1727608;28;20196;-71
2022/09/16 07:30:19;;;;;;;5.00;3.37;;;15.90;97.20;;;;;;1727313;28;20210;-71
2022/09/16 07:31:12;;;;;;;3.92;3.28;;;15.90;97.20;;;;;;1727745;28;20227;-71
2022/09/16 07:32:04;;;;;;;7.25;3.35;;;15.90;97.20;;;;;;1727691;28;20208;-71
2022/09/16 07:32:54;;;;;;;5.32;3.33;;;15.90;97.20;;;;;;1727651;28;20209;-71
2022/09/16 07:33:48;;;;;;;5.30;3.57;;;15.90;97.20;;;;;;1727707;28;20206;-71
2022/09/16 07:34:39;;;;;;;8.98;4.07;;;15.90;97.20;;;;;;1727633;28;20288;-71
2022/09/16 07:35:30;;;;;;;10.80;4.53;;;15.90;97.20;;;;;;1727630;28;20216;-71
2022/09/16 07:36:25;;;;;;;5.35;3.95;;;15.90;97.20;;;;;;1727677;28;20632;-71
2022/09/16 07:37:17;;;;;;;5.18;3.75;;;15.90;97.20;;;;;;1727297;28;20569;-71
2022/09/16 07:38:08;;;;;;;6.13;3.55;;;15.90;97.20;;;;;;1727564;28;20212;-71
2022/09/16 07:39:00;;;;;;;5.10;3.10;;;15.90;97.20;;;;;;1727564;28;20232;-70
2022/09/16 07:39:50;;;;;;;5.65;4.13;;;15.90;97.20;;;;;;1727428;28;20635;-71
2022/09/16 07:40:42;;;;;;;4.07;3.43;;;15.90;97.20;;;;;;1727351;28;20189;-71
2022/09/16 07:41:35;;;;;;;7.07;4.40;;;15.90;97.20;;;;;;1727505;28;20200;-71
2022/09/16 07:42:29;;;;;;;4.53;3.90;;;15.90;97.20;;;;;;1727546;28;20204;-71
2022/09/16 07:43:20;;;;;;;5.35;3.20;;;15.90;97.20;;;;;;1727390;28;20263;-70
2022/09/16 07:44:13;;;;;;;5.43;3.83;;;15.90;97.20;;;;;;1727535;28;20204;-71
2022/09/16 07:45:04;;;;;;;5.75;4.03;;;15.90;97.20;;;;;;1727534;28;20208;-71
2022/09/16 07:45:56;;;;;;;6.30;4.72;;;15.90;97.20;;;;;;1727510;28;20279;-71
2022/09/16 07:46:49;;;;;;;5.15;4.25;;;15.90;97.20;;;;;;1727508;28;20215;-71
2022/09/16 07:47:41;;;;;;;5.65;4.18;;;15.90;97.20;;;;;;1727330;28;20200;-71
2022/09/16 07:48:33;;;;;;;6.43;4.57;;;15.90;97.20;;;;;;1727379;28;20232;-71
2022/09/16 07:49:24;;;;;;;6.97;4.30;;;15.90;97.20;;;;;;1727484;28;20205;-71
2022/09/16 07:50:15;;;;;;;4.50;4.10;;;15.90;97.20;;;;;;1727483;28;20211;-71
2022/09/16 07:51:09;;;;;;;7.70;4.95;;;16.00;97.20;;;;;;1727042;28;20284;-71
2022/09/16 07:52:01;;;;;;;6.40;4.60;;;16.00;97.20;;;;;;1727474;28;20215;-71
2022/09/16 07:52:54;;;;;;;6.45;3.95;;;16.00;97.20;;;;;;1727503;28;20208;-71
2022/09/16 07:53:45;;;;;;;4.70;3.85;;;16.00;97.20;;;;;;1727444;28;20216;-71
2022/09/16 07:54:37;;;;;;;8.90;4.45;;;16.00;97.20;;;;;;1727442;28;20200;-71
2022/09/16 07:55:28;;;;;;;5.75;4.65;;;16.00;97.20;;;;;;1727441;28;20211;-71
2022/09/16 07:56:21;;;;;;;5.63;4.60;;;16.00;97.20;;;;;;1727516;28;20207;-71
2022/09/16 07:57:12;;;;;;;5.60;4.18;;;16.00;97.20;;;;;;1727173;28;20207;-71
2022/09/16 07:58:04;;;;;;;9.40;5.13;;;16.00;97.20;;;;;;1727571;28;20218;-71
2022/09/16 07:58:56;;;;;;;5.45;4.45;;;16.00;97.20;;;;;;1727292;28;20231;-71
2022/09/16 07:59:48;;;;;;;5.70;4.82;;;16.00;97.20;;;;;;1727280;28;20214;-71
2022/09/16 08:00:38;;;;;;;4.80;4.40;;;16.00;97.20;;;;;;1727182;28;20215;-71
2022/09/16 08:01:30;;;;;;;6.50;5.03;;;16.00;97.20;;;;;;1727515;28;20202;-70
2022/09/16 08:02:21;;;;;;;5.60;4.60;;;16.00;97.20;;;;;;1727594;28;20593;-71
2022/09/16 08:03:12;;;;;;;5.40;4.90;;;16.00;97.20;;;;;;1727389;28;20209;-71
2022/09/16 08:04:03;;;;;;;5.65;4.90;;;16.00;97.20;;;;;;1727527;28;20208;-71
2022/09/16 08:04:55;;;;;;;5.07;4.50;;;16.00;97.20;;;;;;1727482;28;20200;-71
2022/09/16 08:05:46;;;;;;;5.07;4.47;;;16.00;97.20;;;;;;1727545;28;20224;-71
2022/09/16 08:06:39;;;;;;;5.00;4.50;;;16.00;97.20;;;;;;1727427;28;20208;-69
2022/09/16 08:07:32;;;;;;;5.57;5.07;;;16.00;97.20;;;;;;1727185;28;20575;-71
2022/09/16 08:08:23;;;;;;;5.47;4.85;;;16.00;97.20;;;;;;1727411;28;20208;-71
2022/09/16 08:09:15;;;;;;;5.05;4.65;;;16.00;97.20;;;;;;1727457;28;20208;-71
2022/09/16 08:10:07;;;;;;;5.78;5.10;;;15.90;97.20;;;;;;1727427;28;20597;-71
2022/09/16 08:10:59;;;;;;;6.38;5.03;;;15.90;97.20;;;;;;1727195;28;20192;-71
2022/09/16 08:11:50;;;;;;;5.18;4.40;;;15.90;97.20;;;;;;1727406;28;20667;-71
2022/09/16 08:12:42;;;;;;;5.20;4.70;;;15.90;97.20;;;;;;1727490;28;20540;-71
2022/09/16 08:13:34;;;;;;;6.93;5.10;;;15.90;97.20;;;;;;1727437;28;20196;-71
2022/09/16 08:14:26;;;;;;;5.53;4.65;;;15.90;97.20;;;;;;1727394;28;20200;-71
2022/09/16 08:15:17;;;;;;;5.65;4.90;;;16.00;97.20;;;;;;1727391;28;20231;-71
2022/09/16 08:16:12;;;;;;;5.43;4.90;;;16.00;97.20;;;;;;1727482;28;20200;-71
2022/09/16 08:17:02;;;;;;;6.10;4.75;;;16.00;97.20;;;;;;1727178;28;20211;-71
2022/09/16 08:17:54;;;;;;;6.90;5.90;;;16.00;97.20;;;;;;1727055;28;20701;-70
2022/09/16 08:18:46;;;;;;;6.38;5.25;;;16.00;97.20;;;;;;1727362;28;20197;-71
2022/09/16 08:19:40;;;;;;;6.10;5.20;;;16.00;97.20;;;;;;1727227;28;20207;-71
2022/09/16 08:20:31;;;;;;;5.82;4.68;;;16.00;97.20;;;;;;1727050;28;20208;-71
2022/09/16 08:21:25;;;;;;;7.33;5.27;;;16.00;97.20;;;;;;1726945;28;20196;-71
2022/09/16 08:22:16;;;;;;;6.72;5.05;;;16.00;97.20;;;;;;1727375;28;20222;-71
2022/09/16 08:23:09;;;;;;;5.03;4.60;;;16.00;97.20;;;;;;1727511;28;20200;-71
2022/09/16 08:23:59;;;;;;;4.97;4.47;;;16.00;97.20;;;;;;1727438;28;20625;-70
2022/09/16 08:24:51;;;;;;;5.97;4.87;;;16.10;97.20;;;;;;1727464;28;20215;-71
2022/09/16 08:25:42;;;;;;;5.63;5.10;;;16.10;97.20;;;;;;1727442;28;20232;-71
2022/09/16 08:26:34;;;;;;;5.03;4.20;;;16.10;97.20;;;;;;1727406;28;20567;-71
2022/09/16 08:27:25;;;;;;;5.40;4.90;;;16.10;97.20;;;;;;1727147;28;20200;-71
2022/09/16 08:28:17;;;;;;;5.55;5.05;;;16.10;97.20;;;;;;1727379;28;20279;-71
2022/09/16 08:29:08;;;;;;;9.07;5.20;;;16.20;97.20;;;;;;1727390;28;20208;-71
2022/09/16 08:30:00;;;;;;;6.00;4.95;;;16.20;97.20;;;;;;1727292;28;20230;-74
2022/09/16 08:30:50;;;;;;;8.43;5.43;;;16.30;97.20;;;;;;1727078;28;20200;-73
2022/09/16 08:31:42;;;;;;;5.30;4.80;;;16.30;97.20;;;;;;1727366;28;20203;-71
2022/09/16 08:32:33;;;;;;;5.20;4.70;;;16.30;97.20;;;;;;1727308;28;20946;-71
2022/09/16 08:33:25;;;;;;;9.20;5.30;;;16.40;97.20;;;;;;1727452;28;20552;-70
2022/09/16 08:34:15;;;;;;;5.30;4.80;;;16.40;97.20;;;;;;1727293;28;20265;-71
2022/09/16 08:35:08;;;;;;;6.20;5.40;;;16.40;97.20;;;;;;1727283;28;20204;-70
2022/09/16 08:35:59;;;;;;;6.60;4.85;;;16.50;97.20;;;;;;1727415;28;20211;-71
2022/09/16 08:36:51;;;;;;;5.45;4.72;;;16.50;97.20;;;;;;1727302;28;20247;-70
2022/09/16 08:37:41;;;;;;;5.93;4.90;;;16.50;97.20;;;;;;1727078;28;20196;-71
2022/09/16 08:38:35;;;;;;;6.07;5.57;;;16.50;97.20;;;;;;1727304;28;20201;-70
2022/09/16 08:39:27;;;;;;;7.20;5.25;;;16.60;97.20;;;;;;1727152;28;20251;-70
2022/09/16 08:40:22;;;;;;;5.55;4.80;;;16.60;97.20;;;;;;1727399;28;20594;-70
2022/09/16 08:41:26;;;;;;;6.82;5.75;;;16.60;97.20;;;;;;1726766;28;20196;-71
2022/09/16 08:42:31;;;;;;;6.20;5.32;;;16.60;97.20;;;;;;1727310;28;20209;-70
2022/09/16 08:43:30;;;;;;;7.20;5.55;;;16.60;97.20;;;;;;1727237;28;20205;-71
2022/09/16 08:44:31;;;;;;;5.65;5.15;;;16.50;97.20;;;;;;1727345;28;20204;-70
2022/09/16 08:45:28;;;;;;;7.60;5.05;;;16.50;97.20;;;;;;1727345;28;20204;-71
2022/09/16 08:46:30;;;;;;;8.50;5.50;;;16.50;97.20;;;;;;1727332;28;20204;-71
2022/09/16 08:47:35;;;;;;;6.80;6.20;;;16.60;97.20;;;;;;1727053;28;20201;-70
2022/09/16 08:48:36;;;;;;;7.57;6.20;;;16.50;97.20;;;;;;1727242;28;20232;-71
2022/09/16 08:49:33;;;;;;;6.70;6.20;;;16.60;97.20;;;;;;1727281;28;20216;-71
2022/09/16 08:50:28;;;;;;;6.38;5.55;;;16.60;97.20;;;;;;1727362;28;20227;-71
2022/09/16 08:51:20;;;;;;;6.47;5.75;;;16.60;97.20;;;;;;1727049;28;20196;-71
2022/09/16 08:52:14;;;;;;;6.00;5.40;;;16.60;97.20;;;;;;1727302;28;20235;-70
2022/09/16 08:53:12;;;;;;;8.10;5.78;;;16.60;97.20;;;;;;1727285;28;20232;-71
2022/09/16 08:54:11;;;;;;;5.95;5.10;;;16.60;97.20;;;;;;1727363;28;20711;-71
2022/09/16 08:55:06;;;;;;;7.93;5.32;;;16.60;97.20;;;;;;1727316;28;20616;-71
2022/09/16 08:56:02;;;;;;;5.85;5.30;;;16.60;97.20;;;;;;1727389;28;20210;-71
2022/09/16 08:56:56;;;;;;;6.82;5.38;;;16.60;97.20;;;;;;1727299;28;20208;-70
2022/09/16 08:57:54;;;;;;;6.55;4.95;;;16.60;97.20;;;;;;1727108;28;20204;-71
2022/09/16 08:58:47;;;;;;;5.78;5.28;;;16.60;97.20;;;;;;1727271;28;20200;-71
2022/09/16 08:59:44;;;;;;;6.07;5.53;;;16.60;97.20;;;;;;1727239;28;20216;-71
2022/09/16 09:00:36;;;;;;;6.57;5.97;;;16.50;97.20;;;;;;1727267;28;20211;-70
2022/09/16 09:01:35;;;;;;;5.65;5.05;;;16.50;97.20;;;;;;1727025;28;20197;-71
2022/09/16 09:02:38;;;;;;;5.18;4.60;;;16.50;97.20;;;;;;1727289;28;20213;-71
2022/09/16 09:03:37;;;;;;;5.68;5.20;;;16.50;97.20;;;;;;1727242;28;20231;-71
2022/09/16 09:04:28;;;;;;;5.63;5.13;;;16.50;97.20;;;;;;1723653;28;20200;-69
2022/09/16 09:05:27;;;;;;;7.50;4.97;;;16.50;97.20;;;;;;1722172;28;20554;-70
2022/09/16 09:06:37;;;;;;;5.15;4.68;;;16.50;97.20;;;;;;1729586;28;20204;-71
2022/09/16 09:07:41;;;;;;;5.90;5.30;;;16.50;97.20;;;;;;1726128;28;20211;-71
2022/09/16 09:08:44;;;;;;;7.55;5.10;;;16.50;97.20;;;;;;1727032;28;20586;-71
2022/09/16 09:09:50;;;;;;;5.15;4.65;;;16.50;97.20;;;;;;1727121;28;20284;-71
2022/09/16 09:10:47;;;;;;;5.30;4.70;;;16.50;97.20;;;;;;1726990;28;20209;-71
2022/09/16 09:11:45;;;;;;;5.47;5.00;;;16.50;97.20;;;;;;1727275;28;20205;-71
2022/09/16 09:12:39;;;;;;;6.38;4.80;;;16.50;97.20;;;;;;1727191;28;20672;-74
2022/09/16 09:13:42;;;;;;;6.55;5.90;;;16.50;97.20;;;;;;1726919;28;20614;-73
2022/09/16 09:14:41;;;;;;;5.47;4.65;;;16.50;97.20;;;;;;1726855;28;20729;-71
2022/09/16 09:15:51;;;;;;;6.28;4.90;;;16.40;97.20;;;;;;1726736;28;20192;-71
2022/09/16 09:16:55;;;;;;;5.75;4.60;;;16.40;97.20;;;;;;1727273;28;20205;-71
2022/09/16 09:18:00;;;;;;;4.60;4.20;;;16.40;97.20;;;;;;1726657;28;20601;-71
2022/09/16 09:19:04;;;;;;;5.35;4.43;;;16.40;97.20;;;;;;1726597;28;20209;-71
2022/09/16 09:20:06;;;;;;;6.00;4.50;;;16.40;97.20;;;;;;1726044;28;20225;-71
2022/09/16 09:21:09;;;;;;;5.50;4.60;;;16.40;97.20;;;;;;1726058;28;20205;-71
2022/09/16 09:22:15;;;;;;;5.28;4.35;;;16.40;97.20;;;;;;1726984;28;20743;-71
2022/09/16 09:23:19;;;;;;;7.55;5.05;;;16.40;97.20;;;;;;1725380;28;20668;-71
2022/09/16 09:24:51;;;;;;;5.72;4.22;;;16.40;97.20;;;;;;1718677;28;20312;-71
2022/09/16 09:25:53;;;;;;;4.78;4.15;;;16.30;97.20;;;;;;1719012;28;20542;-70
2022/09/16 09:26:50;;;;;;;4.53;3.83;;;16.30;97.20;;;;;;1720078;28;20228;-71
2022/09/16 09:27:52;;;;;;;3.95;3.55;;;16.30;97.20;;;;;;1719868;28;20204;-71
2022/09/16 09:29:03;;;;;;;4.80;4.10;;;16.30;97.20;;;;;;1720509;28;20193;-71
2022/09/16 09:30:03;;;;;;;3.30;3.03;;;16.30;97.20;;;;;;1721549;28;20229;-71
2022/09/16 09:31:03;;;;;;;4.57;3.50;;;16.30;97.20;;;;;;1723470;28;20287;-71
2022/09/16 09:32:02;;;;;;;3.95;3.42;;;16.30;97.20;;;;;;1728301;28;20212;-71
2022/09/16 09:33:21;;;;;;;4.38;3.95;;;16.30;97.20;;;;;;1728057;28;20200;-71
2022/09/16 09:34:31;;;;;;;4.00;3.60;;;16.30;97.20;;;;;;1727167;28;20205;-71
2022/09/16 09:35:39;;;;;;;5.07;4.22;;;16.30;97.20;;;;;;1728330;28;20200;-70
2022/09/16 09:36:50;;;;;;;3.88;3.53;;;16.30;97.20;;;;;;1728481;28;20680;-70
2022/09/16 09:37:56;;;;;;;5.18;4.20;;;16.20;97.20;;;;;;1728168;28;20656;-70
2022/09/16 09:39:32;;;;;;;8.02;4.20;;;16.20;97.20;;;;;;1728399;28;20296;-70
2022/09/16 09:40:33;;;;;;;6.40;3.70;;;16.20;97.20;;;;;;1728031;28;20255;-70